Time;durP1;ratioP1;P1;durP2;ratioP2;P2;SDS_P1;SDS_P2;PMS_P1;PMS_P2;Temp;Humidity;BMP_temperature;BMP_pressure;BME280_temperature;BME280_humidity;BME280_pressure;Samples;Min_cycle;Max_cycle;Signal;HPM_P1;HPM_P2
2022/05/28 00:01:21;;;;;;;68.57;4.13;;;13.80;30.20;;;;;;6071866;23;20400;-86
2022/05/28 00:03:48;;;;;;;68.50;4.20;;;13.70;29.20;;;;;;6071264;23;20356;-86
2022/05/28 00:06:19;;;;;;;67.40;4.03;;;13.70;29.90;;;;;;6196609;23;20380;-85
2022/05/28 00:08:48;;;;;;;70.33;3.97;;;13.80;28.10;;;;;;6071158;23;20379;-86
2022/05/28 00:11:27;;;;;;;66.10;3.63;;;13.70;31.50;;;;;;6069588;23;20506;-86
2022/05/28 00:13:53;;;;;;;65.57;3.57;;;13.80;30.50;;;;;;6070843;23;20369;-86
2022/05/28 00:16:20;;;;;;;70.00;3.70;;;13.70;34.00;;;;;;6196817;23;20408;-86
2022/05/28 00:18:46;;;;;;;72.13;3.80;;;13.70;35.30;;;;;;6193644;23;20388;-86
2022/05/28 00:21:13;;;;;;;73.10;3.57;;;13.70;35.80;;;;;;6070020;23;20422;-86
2022/05/28 00:23:41;;;;;;;68.07;4.47;;;13.60;37.90;;;;;;6068388;23;20846;-86
2022/05/28 00:26:07;;;;;;;71.43;4.20;;;13.70;38.90;;;;;;6197464;23;20722;-86
2022/05/28 00:28:33;;;;;;;67.67;3.90;;;13.70;37.80;;;;;;6070987;23;20440;-86
2022/05/28 00:31:00;;;;;;;67.40;3.93;;;13.70;35.80;;;;;;6069949;23;20404;-86
2022/05/28 00:33:27;;;;;;;66.50;3.83;;;13.70;35.60;;;;;;6196443;23;20842;-86
2022/05/28 00:35:53;;;;;;;67.97;3.80;;;13.70;35.40;;;;;;6070640;23;20448;-86
2022/05/28 00:38:19;;;;;;;67.47;3.70;;;13.70;36.90;;;;;;6069630;23;20442;-86
2022/05/28 00:40:51;;;;;;;69.43;4.03;;;13.70;36.70;;;;;;6195971;23;20412;-87
2022/05/28 00:43:16;;;;;;;67.80;3.90;;;13.60;36.90;;;;;;6068230;23;20376;-86
2022/05/28 00:45:46;;;;;;;71.87;3.73;;;13.50;40.50;;;;;;6071091;23;20395;-86
2022/05/28 00:48:17;;;;;;;68.13;3.80;;;13.40;44.50;;;;;;6072210;23;20175;-86
2022/05/28 00:50:44;;;;;;;67.07;3.30;;;13.40;41.30;;;;;;6069749;23;20474;-87
2022/05/28 00:53:10;;;;;;;66.80;3.97;;;13.30;44.80;;;;;;6069663;23;20380;-86
2022/05/28 00:55:36;;;;;;;66.87;3.20;;;13.30;43.30;;;;;;6072024;23;20368;-86
2022/05/28 00:58:06;;;;;;;70.80;3.70;;;13.20;45.10;;;;;;6072155;23;20144;-86
2022/05/28 01:00:33;;;;;;;66.67;3.83;;;13.30;44.80;;;;;;6070804;23;20349;-86
2022/05/28 01:03:17;;;;;;;71.07;4.33;;;13.20;46.30;;;;;;6071565;23;20399;-86
2022/05/28 01:06:04;;;;;;;70.17;4.47;;;13.20;48.10;;;;;;6070197;23;20376;-86
2022/05/28 01:09:10;;;;;;;73.20;4.30;;;13.30;47.00;;;;;;6073478;23;20425;-86
2022/05/28 01:11:44;;;;;;;68.50;4.23;;;13.30;47.70;;;;;;6083314;23;20488;-86
2022/05/28 01:14:18;;;;;;;67.53;4.23;;;13.30;47.90;;;;;;6071671;23;20442;-86
2022/05/28 01:16:51;;;;;;;69.00;4.57;;;13.30;47.00;;;;;;6074063;23;20360;-85
2022/05/28 01:19:35;;;;;;;68.77;4.23;;;13.30;47.20;;;;;;6072879;23;20404;-86
2022/05/28 01:22:10;;;;;;;70.00;3.63;;;13.30;48.10;;;;;;6074019;23;20396;-86
2022/05/28 01:24:46;;;;;;;66.67;4.20;;;13.30;47.60;;;;;;6070643;23;20384;-86
2022/05/28 01:27:28;;;;;;;68.83;3.97;;;13.40;45.30;;;;;;6073196;23;20460;-86
2022/05/28 01:30:01;;;;;;;68.43;3.47;;;13.30;47.10;;;;;;6073470;23;20480;-86
2022/05/28 01:32:27;;;;;;;66.63;3.40;;;13.20;49.50;;;;;;6071265;23;20404;-86
2022/05/28 01:34:54;;;;;;;72.90;4.27;;;13.20;50.70;;;;;;6073316;23;20365;-86
2022/05/28 01:37:21;;;;;;;67.27;4.40;;;13.20;51.00;;;;;;6074518;23;20368;-86
2022/05/28 01:39:50;;;;;;;76.83;4.57;;;13.20;52.10;;;;;;6097344;23;20392;-86
2022/05/28 01:42:17;;;;;;;69.07;4.70;;;13.20;53.80;;;;;;6075514;23;20392;-86
2022/05/28 01:44:45;;;;;;;70.47;4.87;;;13.20;53.70;;;;;;6075608;23;20376;-86
2022/05/28 01:47:14;;;;;;;66.90;4.47;;;13.20;55.00;;;;;;6075267;23;20907;-86
2022/05/28 01:49:40;;;;;;;72.93;4.83;;;13.30;51.10;;;;;;6074319;23;20451;-86
2022/05/28 01:52:07;;;;;;;68.07;4.30;;;13.30;51.60;;;;;;6200151;23;20399;-87
2022/05/28 01:54:37;;;;;;;68.00;4.53;;;13.20;52.10;;;;;;6075700;23;20424;-86
2022/05/28 01:57:04;;;;;;;68.97;4.70;;;13.20;52.50;;;;;;6074447;23;20391;-86
2022/05/28 01:59:33;;;;;;;65.80;4.90;;;13.20;53.50;;;;;;6074346;23;20365;-86
2022/05/28 02:02:02;;;;;;;71.77;4.40;;;13.20;51.10;;;;;;6074364;23;20388;-86
2022/05/28 02:04:30;;;;;;;67.57;5.10;;;13.10;53.10;;;;;;6200521;23;20411;-86
2022/05/28 02:06:56;;;;;;;71.63;4.90;;;13.10;52.90;;;;;;6201007;23;20390;-87
2022/05/28 02:09:28;;;;;;;68.77;5.20;;;13.20;52.10;;;;;;6074421;23;20360;-86
2022/05/28 02:12:19;;;;;;;71.27;4.23;;;13.20;50.20;;;;;;6074931;23;20160;-86
2022/05/28 02:15:08;;;;;;;66.93;4.50;;;13.10;51.10;;;;;;6076172;23;20371;-87
2022/05/28 02:17:42;;;;;;;67.27;4.33;;;13.10;50.70;;;;;;6080485;23;20439;-87
2022/05/28 02:20:35;;;;;;;71.20;4.40;;;13.10;49.80;;;;;;6075569;23;20769;-87
2022/05/28 02:23:07;;;;;;;74.03;3.90;;;13.10;50.20;;;;;;6074057;23;20411;-87
2022/05/28 02:25:42;;;;;;;67.70;4.20;;;13.10;49.50;;;;;;6075149;23;20357;-86
2022/05/28 02:28:09;;;;;;;71.97;4.97;;;13.10;49.40;;;;;;6075098;23;20386;-86
2022/05/28 02:30:48;;;;;;;69.17;4.67;;;13.00;52.20;;;;;;6200441;23;20420;-87
2022/05/28 02:33:15;;;;;;;66.43;4.40;;;12.90;53.90;;;;;;6073824;23;20348;-86
2022/05/28 02:35:40;;;;;;;68.63;5.10;;;12.90;55.40;;;;;;6199506;23;20391;-88
2022/05/28 02:38:06;;;;;;;71.70;5.47;;;12.80;59.90;;;;;;6200223;23;20869;-86
2022/05/28 02:40:32;;;;;;;70.23;5.30;;;12.80;58.10;;;;;;6076585;23;20151;-86
2022/05/28 02:42:58;;;;;;;69.43;4.80;;;12.90;58.10;;;;;;6076690;23;20168;-86
2022/05/28 02:45:23;;;;;;;69.00;5.00;;;13.00;56.80;;;;;;6074797;23;20147;-86
2022/05/28 02:47:49;;;;;;;67.97;4.70;;;12.90;58.60;;;;;;6075378;23;20194;-86
2022/05/28 02:50:15;;;;;;;67.97;5.80;;;13.00;59.30;;;;;;6075623;23;20164;-86
2022/05/28 02:52:41;;;;;;;66.90;5.40;;;13.00;59.70;;;;;;6074504;23;20164;-86
2022/05/28 02:55:07;;;;;;;71.50;5.20;;;13.00;59.60;;;;;;6075470;23;20160;-86
2022/05/28 02:57:33;;;;;;;68.37;5.33;;;13.00;59.20;;;;;;6075071;23;20140;-86
2022/05/28 02:59:58;;;;;;;69.10;5.40;;;13.00;61.30;;;;;;6073965;23;20395;-86
2022/05/28 03:02:27;;;;;;;80.17;5.27;;;13.00;61.10;;;;;;6073718;23;20175;-87
2022/05/28 03:04:53;;;;;;;77.73;5.73;;;13.00;62.60;;;;;;6097833;23;20156;-87
2022/05/28 03:07:19;;;;;;;67.90;4.77;;;13.00;61.60;;;;;;6074011;23;20767;-86
2022/05/28 03:09:44;;;;;;;70.57;5.10;;;13.00;60.80;;;;;;6073673;23;20412;-86
2022/05/28 03:12:11;;;;;;;72.10;5.03;;;13.10;60.70;;;;;;6074310;23;20497;-86
2022/05/28 03:14:36;;;;;;;69.93;4.87;;;13.10;59.10;;;;;;6197885;23;20151;-86
2022/05/28 03:17:03;;;;;;;67.20;4.00;;;13.00;61.60;;;;;;6073328;23;20364;-87
2022/05/28 03:19:28;;;;;;;70.27;4.87;;;13.00;66.20;;;;;;6071847;23;20387;-86
2022/05/28 03:21:54;;;;;;;68.27;5.93;;;12.90;63.40;;;;;;6072429;23;20400;-86
2022/05/28 03:24:20;;;;;;;65.57;4.07;;;13.00;65.10;;;;;;6198588;23;20179;-86
2022/05/28 03:26:45;;;;;;;69.30;4.90;;;12.90;66.70;;;;;;6071472;23;20147;-86
2022/05/28 03:29:11;;;;;;;68.87;4.90;;;13.00;65.90;;;;;;6073246;23;20140;-86
2022/05/28 03:31:37;;;;;;;69.77;5.00;;;12.90;67.80;;;;;;6073679;23;20641;-86
2022/05/28 03:34:03;;;;;;;74.60;5.67;;;13.00;65.30;;;;;;6071739;23;20375;-86
2022/05/28 03:36:29;;;;;;;68.60;5.73;;;12.90;68.30;;;;;;6199602;23;20152;-86
2022/05/28 03:38:55;;;;;;;69.90;4.83;;;12.90;68.10;;;;;;6147925;22;20474;-86
2022/05/28 03:41:21;;;;;;;67.90;4.83;;;12.80;69.10;;;;;;6219983;23;20777;-86
2022/05/28 03:43:47;;;;;;;74.30;6.57;;;12.90;70.10;;;;;;6220361;23;20405;-85
2022/05/28 03:46:27;;;;;;;71.23;4.60;;;12.90;69.90;;;;;;6247937;23;20581;-85
2022/05/28 03:48:56;;;;;;;73.83;5.17;;;13.00;68.60;;;;;;6248243;23;20450;-85
2022/05/28 03:51:22;;;;;;;71.93;4.57;;;12.90;69.30;;;;;;6221256;23;20447;-85
2022/05/28 03:53:47;;;;;;;65.73;4.50;;;13.00;66.00;;;;;;6221624;23;20379;-86
2022/05/28 03:56:13;;;;;;;79.60;5.30;;;13.00;69.30;;;;;;6248195;23;20140;-86
2022/05/28 03:58:39;;;;;;;67.40;4.43;;;13.00;67.60;;;;;;6223447;23;20246;-86
2022/05/28 04:01:04;;;;;;;67.33;5.03;;;13.00;68.40;;;;;;6250891;22;20160;-85
2022/05/28 04:03:30;;;;;;;68.50;4.40;;;13.00;67.50;;;;;;6251091;23;20144;-86
2022/05/28 04:05:56;;;;;;;68.73;6.40;;;13.00;70.80;;;;;;6251530;23;20198;-86
2022/05/28 04:08:22;;;;;;;66.70;4.70;;;13.00;72.60;;;;;;6251790;23;20147;-86
2022/05/28 04:10:48;;;;;;;69.80;5.00;;;13.00;71.10;;;;;;6251758;22;20398;-86
2022/05/28 04:13:13;;;;;;;71.10;5.17;;;12.90;73.40;;;;;;6251774;23;20574;-86
2022/05/28 04:15:39;;;;;;;69.10;5.60;;;13.00;75.70;;;;;;6224762;23;20144;-86
2022/05/28 04:18:07;;;;;;;66.83;4.23;;;12.90;79.90;;;;;;6224482;23;20144;-86
2022/05/28 04:20:34;;;;;;;72.67;4.93;;;12.90;77.60;;;;;;6251600;23;20362;-85
2022/05/28 04:23:00;;;;;;;69.43;5.27;;;12.90;76.70;;;;;;6224751;23;20394;-85
2022/05/28 04:25:26;;;;;;;72.23;5.20;;;13.00;75.80;;;;;;6251665;23;20373;-85
2022/05/28 04:27:51;;;;;;;68.67;5.37;;;13.00;79.80;;;;;;6250860;23;20763;-86
2022/05/28 04:30:17;;;;;;;70.53;5.50;;;12.90;80.50;;;;;;6223902;23;20406;-86
2022/05/28 04:32:43;;;;;;;69.50;5.40;;;13.00;76.40;;;;;;6251554;22;20156;-85
2022/05/28 04:35:09;;;;;;;79.70;6.00;;;13.00;80.20;;;;;;6251751;23;20140;-86
2022/05/28 04:37:35;;;;;;;68.17;5.43;;;13.10;78.20;;;;;;6223528;23;20152;-86
2022/05/28 04:40:01;;;;;;;72.43;5.33;;;13.10;81.10;;;;;;6223907;23;20421;-85
2022/05/28 04:42:29;;;;;;;72.97;6.37;;;13.10;83.10;;;;;;6224712;23;20547;-85
2022/05/28 04:44:56;;;;;;;72.13;5.00;;;13.10;82.40;;;;;;6256411;23;20371;-86
2022/05/28 04:47:22;;;;;;;71.77;5.97;;;13.10;83.40;;;;;;6254557;23;20397;-87
2022/05/28 04:49:51;;;;;;;69.30;5.60;;;13.10;85.70;;;;;;6255147;23;20403;-86
2022/05/28 04:52:17;;;;;;;70.50;6.67;;;13.10;86.00;;;;;;6226233;23;20395;-86
2022/05/28 04:54:43;;;;;;;71.27;5.67;;;13.20;83.70;;;;;;6254044;23;20443;-86
2022/05/28 04:57:08;;;;;;;74.53;6.40;;;13.30;84.40;;;;;;6255865;23;20839;-86
2022/05/28 04:59:37;;;;;;;69.47;5.23;;;13.30;81.30;;;;;;6254589;23;20147;-86
2022/05/28 05:02:04;;;;;;;69.20;5.83;;;13.30;82.20;;;;;;6254589;22;20156;-87
2022/05/28 05:04:30;;;;;;;70.70;6.10;;;13.40;81.70;;;;;;6253883;23;20359;-86
2022/05/28 05:06:55;;;;;;;70.80;6.83;;;13.40;84.40;;;;;;6222784;23;20780;-85
2022/05/28 05:09:21;;;;;;;72.20;5.97;;;13.50;85.50;;;;;;6221272;23;20604;-86
2022/05/28 05:11:46;;;;;;;69.67;6.30;;;13.60;83.50;;;;;;6248398;22;20171;-86
2022/05/28 05:14:12;;;;;;;67.20;5.23;;;13.70;77.90;;;;;;6222413;23;20207;-85
2022/05/28 05:16:38;;;;;;;70.83;5.33;;;13.70;79.30;;;;;;6222439;23;20151;-85
2022/05/28 05:19:03;;;;;;;75.23;6.53;;;13.80;78.40;;;;;;6248958;23;20136;-86
2022/05/28 05:21:29;;;;;;;73.40;5.80;;;13.70;83.30;;;;;;6223232;23;20172;-86
2022/05/28 05:23:55;;;;;;;70.57;5.63;;;13.70;81.60;;;;;;6250259;23;20170;-86
2022/05/28 05:26:22;;;;;;;70.40;6.40;;;13.80;79.80;;;;;;6223137;23;20158;-86
2022/05/28 05:28:49;;;;;;;72.23;6.03;;;13.80;80.90;;;;;;6249589;23;20573;-86
2022/05/28 05:31:15;;;;;;;71.13;5.47;;;13.70;81.30;;;;;;6249488;22;20497;-85
2022/05/28 05:33:41;;;;;;;69.50;5.30;;;13.70;81.50;;;;;;6249518;23;20442;-85
2022/05/28 05:36:07;;;;;;;71.10;5.63;;;13.70;86.50;;;;;;6249869;23;20370;-85
2022/05/28 05:38:33;;;;;;;71.60;6.57;;;13.70;83.00;;;;;;6223031;23;20391;-85
2022/05/28 05:40:59;;;;;;;66.20;5.60;;;13.70;86.10;;;;;;6222841;22;20763;-86
2022/05/28 05:43:24;;;;;;;68.30;6.87;;;13.70;88.60;;;;;;6223129;23;20414;-85
2022/05/28 05:45:52;;;;;;;68.77;7.67;;;13.70;91.40;;;;;;6223063;23;20155;-86
2022/05/28 05:48:18;;;;;;;68.87;8.47;;;13.70;92.00;;;;;;6251367;23;20193;-85
2022/05/28 05:50:44;;;;;;;71.70;7.97;;;13.60;93.50;;;;;;6223290;22;20442;-86
2022/05/28 05:53:09;;;;;;;71.10;8.70;;;13.60;95.20;;;;;;6251057;23;20629;-85
2022/05/28 05:55:38;;;;;;;67.97;10.47;;;13.60;96.00;;;;;;6251434;23;20200;-85
2022/05/28 05:58:06;;;;;;;68.83;12.23;;;13.50;98.60;;;;;;6250501;23;20144;-86
2022/05/28 06:00:32;;;;;;;68.77;12.47;;;13.50;99.90;;;;;;6224477;23;20717;-85
2022/05/28 06:02:58;;;;;;;74.47;14.23;;;13.50;99.30;;;;;;6249857;22;20393;-86
2022/05/28 06:05:23;;;;;;;72.83;11.50;;;13.50;99.90;;;;;;6251463;23;20153;-85
2022/05/28 06:07:49;;;;;;;70.87;13.30;;;13.60;99.30;;;;;;6251096;23;20223;-86
2022/05/28 06:10:16;;;;;;;76.87;13.27;;;13.60;99.90;;;;;;6251797;23;20167;-85
2022/05/28 06:12:41;;;;;;;70.40;11.87;;;13.40;99.90;;;;;;6223826;23;20251;-85
2022/05/28 06:15:08;;;;;;;76.23;12.13;;;13.50;99.90;;;;;;6253801;23;20844;-86
2022/05/28 06:17:35;;;;;;;76.20;11.03;;;13.60;99.90;;;;;;6257441;23;20140;-86
2022/05/28 06:20:06;;;;;;;69.07;11.07;;;13.60;99.90;;;;;;6253826;23;20462;-86
2022/05/28 06:22:32;;;;;;;72.30;8.93;;;13.70;99.90;;;;;;6253149;22;20383;-86
2022/05/28 06:24:58;;;;;;;68.03;11.60;;;13.70;99.90;;;;;;6226039;23;20426;-85
2022/05/28 06:27:23;;;;;;;73.83;12.07;;;13.80;99.90;;;;;;6251356;23;20170;-85
2022/05/28 06:29:49;;;;;;;74.63;10.93;;;13.90;99.90;;;;;;6225517;23;20282;-87
2022/05/28 06:32:15;;;;;;;70.67;9.00;;;14.00;99.90;;;;;;6226341;23;20164;-86
2022/05/28 06:34:41;;;;;;;73.03;11.90;;;14.10;99.90;;;;;;6228141;23;20144;-86
2022/05/28 06:37:08;;;;;;;69.40;10.70;;;14.00;99.90;;;;;;6254686;23;20493;-86
2022/05/28 06:39:34;;;;;;;70.20;10.20;;;14.10;99.90;;;;;;6252226;23;20210;-86
2022/05/28 06:42:00;;;;;;;72.23;9.43;;;14.20;99.90;;;;;;6253658;22;20771;-86
2022/05/28 06:44:26;;;;;;;72.13;10.17;;;14.10;99.50;;;;;;6253508;23;20364;-86
2022/05/28 06:46:52;;;;;;;73.80;9.30;;;14.10;96.50;;;;;;6223377;23;20148;-85
2022/05/28 06:49:17;;;;;;;70.60;13.00;;;14.10;97.30;;;;;;6247711;23;20370;-84
2022/05/28 06:51:43;;;;;;;71.47;10.50;;;14.00;95.30;;;;;;6246702;23;20183;-85
2022/05/28 06:54:15;;;;;;;68.50;10.07;;;14.00;97.90;;;;;;6221964;23;20144;-84
2022/05/28 06:56:41;;;;;;;68.00;10.37;;;14.10;94.00;;;;;;6221138;23;20386;-85
2022/05/28 06:59:07;;;;;;;75.10;10.00;;;14.20;95.70;;;;;;6222443;23;20372;-85
2022/05/28 07:01:32;;;;;;;68.33;9.60;;;14.30;94.60;;;;;;6251646;22;20160;-85
2022/05/28 07:03:58;;;;;;;67.90;6.97;;;14.40;94.80;;;;;;6225432;23;20143;-85
2022/05/28 07:06:29;;;;;;;66.17;5.20;;;14.30;74.60;;;;;;6221898;23;20148;-85
2022/05/28 07:08:55;;;;;;;68.90;4.43;;;14.20;64.10;;;;;;6222048;23;20176;-85
2022/05/28 07:11:21;;;;;;;68.03;7.40;;;14.30;70.10;;;;;;6248788;22;20414;-85
2022/05/28 07:13:46;;;;;;;66.30;8.30;;;14.30;77.50;;;;;;6250879;23;20363;-85
2022/05/28 07:16:12;;;;;;;69.47;6.37;;;14.30;89.20;;;;;;6224120;23;20381;-85
2022/05/28 07:18:40;;;;;;;66.47;5.93;;;14.40;75.90;;;;;;6251343;23;20174;-85
2022/05/28 07:21:07;;;;;;;69.67;5.10;;;14.40;65.00;;;;;;6223683;22;20174;-85
2022/05/28 07:23:33;;;;;;;67.27;5.37;;;14.40;60.00;;;;;;6250333;23;20465;-86
2022/05/28 07:26:12;;;;;;;68.67;5.00;;;14.50;61.60;;;;;;6224072;23;20374;-86
2022/05/28 07:28:40;;;;;;;65.10;5.53;;;14.40;67.20;;;;;;6223972;23;20420;-85
2022/05/28 07:31:24;;;;;;;67.27;6.30;;;14.30;76.00;;;;;;6223859;22;20505;-86
2022/05/28 07:33:49;;;;;;;66.37;6.77;;;14.50;77.70;;;;;;6251461;23;20461;-87
2022/05/28 07:36:18;;;;;;;71.63;6.30;;;14.60;82.00;;;;;;6252617;23;20769;-85
2022/05/28 07:38:45;;;;;;;67.77;5.10;;;14.80;71.10;;;;;;6226079;23;20174;-87
2022/05/28 07:41:18;;;;;;;65.67;4.33;;;15.00;76.50;;;;;;6254420;22;20396;-86
2022/05/28 07:43:44;;;;;;;66.30;5.87;;;15.00;69.50;;;;;;6254397;23;20370;-88
2022/05/28 07:46:17;;;;;;;68.97;5.60;;;14.90;58.40;;;;;;6254461;23;20389;-87
2022/05/28 07:48:45;;;;;;;67.17;3.50;;;14.90;67.20;;;;;;6231744;23;20761;-88
2022/05/28 07:51:11;;;;;;;65.57;4.30;;;15.00;52.20;;;;;;6230122;23;20418;-87
2022/05/28 07:53:37;;;;;;;66.57;3.33;;;15.20;54.80;;;;;;6256311;23;20825;-87
2022/05/28 07:56:04;;;;;;;68.40;3.30;;;15.30;58.40;;;;;;6228410;23;20155;-87
2022/05/28 07:58:30;;;;;;;66.73;3.03;;;15.20;35.30;;;;;;6256247;23;20363;-87
2022/05/28 08:00:57;;;;;;;64.80;2.80;;;15.10;40.00;;;;;;6256480;22;20371;-88
2022/05/28 08:03:23;;;;;;;67.97;3.00;;;15.00;35.80;;;;;;6230939;23;20375;-88
2022/05/28 08:05:51;;;;;;;66.23;2.87;;;15.00;34.90;;;;;;6231019;23;20432;-87
2022/05/28 08:08:19;;;;;;;65.60;3.30;;;14.90;34.80;;;;;;6230939;23;20410;-87
2022/05/28 08:10:44;;;;;;;68.27;3.70;;;14.90;28.30;;;;;;6257877;22;20406;-87
2022/05/28 08:13:14;;;;;;;65.87;2.77;;;15.00;29.50;;;;;;6257352;23;20400;-87
2022/05/28 08:15:43;;;;;;;66.57;3.20;;;15.10;31.30;;;;;;6257201;23;20140;-87
2022/05/28 08:18:10;;;;;;;69.77;3.70;;;15.20;26.10;;;;;;6256566;23;20817;-88
2022/05/28 08:23:20;;;;;;;68.87;4.00;;;15.10;14.80;;;;;;6255514;23;20347;-86
2022/05/28 08:25:47;;;;;;;68.00;3.73;;;15.00;19.00;;;;;;6251276;23;20363;-86
2022/05/28 08:28:15;;;;;;;67.27;5.37;;;15.20;26.30;;;;;;6249085;23;20363;-86
2022/05/28 08:30:41;;;;;;;67.83;4.10;;;15.20;17.10;;;;;;6251498;23;20409;-87
2022/05/28 08:33:08;;;;;;;66.47;5.50;;;15.10;22.70;;;;;;6251471;22;20467;-86
2022/05/28 08:35:35;;;;;;;66.80;6.20;;;15.20;17.90;;;;;;6251189;23;20192;-86
2022/05/28 08:38:07;;;;;;;67.77;5.20;;;15.40;20.40;;;;;;6256488;23;20363;-86
2022/05/28 08:40:42;;;;;;;68.37;6.10;;;15.30;21.10;;;;;;6238571;23;20379;-87
2022/05/28 08:43:09;;;;;;;74.17;5.97;;;15.30;13.80;;;;;;6264247;23;20345;-85
2022/05/28 08:45:35;;;;;;;80.37;6.90;;;15.30;13.50;;;;;;6239404;23;20395;-86
2022/05/28 08:48:03;;;;;;;67.07;7.30;;;15.60;13.00;;;;;;6262416;23;20442;-87
2022/05/28 08:50:30;;;;;;;65.00;2.90;;;15.80;12.00;;;;;;6263795;23;20409;-86
2022/05/28 08:53:13;;;;;;;66.50;3.30;;;16.00;1.00;;;;;;6265214;22;20391;-87
2022/05/28 08:55:44;;;;;;;66.97;3.10;;;16.10;1.00;;;;;;6231019;23;20382;-86
2022/05/28 08:58:14;;;;;;;66.73;3.50;;;16.10;1.00;;;;;;6224976;23;20376;-86
2022/05/28 09:01:10;;;;;;;70.40;3.60;;;16.00;1.00;;;;;;6251620;23;20353;-86
2022/05/28 09:03:54;;;;;;;66.60;3.00;;;16.00;1.00;;;;;;6183964;23;20374;-86
2022/05/28 09:06:26;;;;;;;68.70;3.23;;;16.10;1.00;;;;;;6232459;23;20382;-86
2022/05/28 09:08:54;;;;;;;66.47;2.97;;;16.00;1.00;;;;;;6228365;23;20834;-87
2022/05/28 09:11:37;;;;;;;65.10;3.20;;;16.00;1.00;;;;;;6253520;22;20419;-87
2022/05/28 09:14:25;;;;;;;73.83;3.50;;;16.20;1.00;;;;;;6257013;23;20356;-87
2022/05/28 09:16:59;;;;;;;66.47;3.70;;;16.00;1.00;;;;;;6255996;23;20405;-87
2022/05/28 09:19:48;;;;;;;68.60;3.20;;;16.10;1.00;;;;;;6239112;23;20391;-87
2022/05/28 09:22:14;;;;;;;69.33;3.10;;;16.10;1.00;;;;;;6235389;23;20403;-87
2022/05/28 09:24:41;;;;;;;66.10;3.33;;;16.20;1.00;;;;;;6231637;23;20378;-87
2022/05/28 09:27:17;;;;;;;68.43;4.13;;;16.30;1.00;;;;;;6232123;23;20391;-87
2022/05/28 09:29:46;;;;;;;68.07;5.20;;;16.40;1.00;;;;;;6256809;23;20350;-87
2022/05/28 09:33:09;;;;;;;67.67;3.27;;;16.60;1.00;;;;;;6251318;22;20475;-87
2022/05/28 09:36:06;;;;;;;66.90;2.90;;;17.00;1.00;;;;;;6134023;23;20377;-87
2022/05/28 09:38:51;;;;;;;66.40;2.50;;;17.10;1.00;;;;;;6110196;22;20470;-86
2022/05/28 09:41:45;;;;;;;66.60;2.60;;;17.00;1.00;;;;;;6224271;23;20396;-86
2022/05/28 09:44:29;;;;;;;69.17;3.47;;;16.70;1.00;;;;;;6227459;23;20487;-86
2022/05/28 09:47:07;;;;;;;65.47;2.70;;;16.80;1.00;;;;;;6224640;23;20379;-86
2022/05/28 09:49:32;;;;;;;70.87;3.30;;;16.50;1.00;;;;;;6227492;23;20347;-86
2022/05/28 09:52:08;;;;;;;68.07;2.93;;;16.20;1.00;;;;;;6223824;23;20904;-86
2022/05/28 09:54:35;;;;;;;66.10;2.90;;;16.40;1.00;;;;;;6223208;23;20285;-86
2022/05/28 09:57:09;;;;;;;70.20;2.63;;;16.60;1.00;;;;;;6222897;23;20362;-86
2022/05/28 09:59:46;;;;;;;66.17;2.93;;;16.70;1.00;;;;;;6197634;23;20382;-86
2022/05/28 10:02:40;;;;;;;68.67;2.73;;;17.00;1.00;;;;;;6196726;23;20409;-87
2022/05/28 10:05:20;;;;;;;65.40;2.30;;;17.40;1.00;;;;;;6197618;23;20837;-86
2022/05/28 10:07:54;;;;;;;66.77;2.90;;;17.30;1.00;;;;;;6224798;23;20762;-85
2022/05/28 10:10:27;;;;;;;66.40;2.33;;;17.10;1.00;;;;;;6226504;23;20407;-85
2022/05/28 10:13:25;;;;;;;65.90;2.70;;;17.40;1.00;;;;;;6195847;23;20959;-87
2022/05/28 10:15:59;;;;;;;68.00;2.73;;;17.70;1.00;;;;;;6180733;23;20465;-87
2022/05/28 10:18:39;;;;;;;65.80;2.40;;;18.10;1.00;;;;;;6220239;23;20364;-86
2022/05/28 10:21:20;;;;;;;65.70;2.70;;;18.20;1.00;;;;;;6224759;23;20384;-86
2022/05/28 10:24:00;;;;;;;65.57;2.80;;;17.90;1.00;;;;;;6196288;23;20379;-86
2022/05/28 10:26:31;;;;;;;65.20;2.43;;;17.50;1.00;;;;;;6220840;23;20865;-86
2022/05/28 10:29:06;;;;;;;69.00;3.30;;;17.60;1.00;;;;;;6221745;23;20388;-86
2022/05/28 10:31:37;;;;;;;68.00;5.23;;;18.00;1.00;;;;;;6197215;23;20423;-86
2022/05/28 10:34:03;;;;;;;68.37;5.20;;;18.40;1.00;;;;;;6220349;23;20364;-86
2022/05/28 10:36:32;;;;;;;67.17;3.77;;;18.90;1.00;;;;;;6224770;23;20475;-85
2022/05/28 10:39:17;;;;;;;67.27;3.30;;;19.20;1.00;;;;;;6222688;23;20376;-86
2022/05/28 10:41:44;;;;;;;65.17;2.40;;;19.60;1.00;;;;;;6222437;23;20419;-86
2022/05/28 10:44:15;;;;;;;66.10;2.80;;;19.80;1.00;;;;;;6225828;23;20378;-86
2022/05/28 10:47:07;;;;;;;66.10;2.30;;;19.20;1.00;;;;;;6199069;23;20399;-86
2022/05/28 10:50:05;;;;;;;66.53;2.50;;;19.30;1.00;;;;;;6208826;23;20362;-86
2022/05/28 10:52:42;;;;;;;66.77;2.67;;;18.80;1.00;;;;;;6204079;23;20438;-86
2022/05/28 10:55:16;;;;;;;70.40;2.90;;;18.70;1.00;;;;;;6226064;23;20407;-87
2022/05/28 10:58:19;;;;;;;66.77;2.77;;;18.80;1.00;;;;;;6223490;23;20355;-86
2022/05/28 11:01:13;;;;;;;66.70;2.30;;;19.20;1.00;;;;;;6226089;23;20370;-87
2022/05/28 11:04:03;;;;;;;65.87;2.43;;;19.10;1.00;;;;;;6227006;23;20356;-86
2022/05/28 11:07:13;;;;;;;66.07;2.70;;;18.70;1.00;;;;;;6203218;23;20372;-86
2022/05/28 11:10:04;;;;;;;65.70;2.63;;;19.10;1.00;;;;;;6225847;23;20387;-87
2022/05/28 11:12:36;;;;;;;65.73;3.00;;;19.40;1.00;;;;;;6225092;23;20414;-87
2022/05/28 11:15:20;;;;;;;66.17;2.80;;;18.90;1.00;;;;;;6229063;23;20464;-86
2022/05/28 11:17:54;;;;;;;66.60;3.03;;;18.60;1.00;;;;;;6227774;23;20340;-87
2022/05/28 11:20:42;;;;;;;65.87;2.70;;;18.70;1.00;;;;;;6202286;23;20374;-87
2022/05/28 11:23:36;;;;;;;67.20;2.67;;;18.90;1.00;;;;;;6221071;23;20399;-86
2022/05/28 11:26:23;;;;;;;67.40;2.20;;;19.40;1.00;;;;;;6196069;23;20467;-87
2022/05/28 11:29:04;;;;;;;65.57;2.60;;;19.70;1.00;;;;;;6223792;23;20402;-87
2022/05/28 11:31:49;;;;;;;69.00;2.50;;;19.80;1.00;;;;;;6222358;23;20801;-85
2022/05/28 11:34:48;;;;;;;65.77;2.20;;;20.20;1.00;;;;;;6194649;23;20402;-88
2022/05/28 11:37:35;;;;;;;65.90;2.10;;;20.80;1.00;;;;;;6209944;23;20415;-87
2022/05/28 11:40:16;;;;;;;65.67;2.13;;;20.60;1.00;;;;;;6226125;23;20371;-86
2022/05/28 11:42:48;;;;;;;64.70;2.10;;;20.40;1.00;;;;;;6196085;23;20400;-86
2022/05/28 11:45:36;;;;;;;66.90;2.30;;;20.40;1.00;;;;;;6195755;23;20845;-87
2022/05/28 11:48:10;;;;;;;66.07;2.20;;;20.10;1.00;;;;;;6222332;23;20348;-87
2022/05/28 11:54:04;;;;;;;68.03;2.23;;;19.90;1.00;;;;;;6221919;23;20396;-87
2022/05/28 11:56:31;;;;;;;65.70;1.97;;;19.60;1.00;;;;;;6223330;23;20375;-86
2022/05/28 11:59:05;;;;;;;68.37;2.20;;;19.20;1.00;;;;;;6232812;23;20368;-87
2022/05/28 12:01:47;;;;;;;67.30;2.63;;;19.10;1.00;;;;;;6233026;23;20376;-87
2022/05/28 12:04:13;;;;;;;72.90;2.70;;;19.00;1.00;;;;;;6232413;23;20417;-87
2022/05/28 12:06:46;;;;;;;65.10;2.30;;;19.00;1.00;;;;;;6233970;23;20710;-86
2022/05/28 12:09:20;;;;;;;66.67;2.70;;;18.90;1.00;;;;;;6231218;23;20403;-86
2022/05/28 12:11:59;;;;;;;68.23;2.30;;;18.60;1.00;;;;;;6228795;23;20443;-86
2022/05/28 12:14:32;;;;;;;69.00;2.43;;;18.40;1.00;;;;;;6219000;23;20801;-86
2022/05/28 12:17:18;;;;;;;66.90;2.80;;;18.60;1.00;;;;;;6191906;23;20368;-87
2022/05/28 12:19:47;;;;;;;67.40;2.80;;;19.20;1.00;;;;;;6192517;23;20379;-86
2022/05/28 12:22:41;;;;;;;66.63;2.30;;;19.80;1.00;;;;;;6195647;23;20391;-87
2022/05/28 12:25:14;;;;;;;69.03;2.73;;;20.20;1.00;;;;;;6166951;23;20397;-88
2022/05/28 12:28:08;;;;;;;65.20;1.97;;;20.60;1.00;;;;;;6193061;23;20454;-87
2022/05/28 12:30:41;;;;;;;66.10;2.47;;;20.60;1.00;;;;;;6168024;23;20446;-86
2022/05/28 12:33:25;;;;;;;66.30;2.60;;;20.90;1.00;;;;;;6164563;23;20400;-87
2022/05/28 12:36:10;;;;;;;68.00;2.20;;;21.10;1.00;;;;;;6166089;23;20901;-86
2022/05/28 12:41:37;;;;;;;69.40;2.40;;;21.10;1.00;;;;;;5098230;27;20551;-85
2022/05/28 12:44:08;;;;;;;67.03;2.27;;;20.00;1.00;;;;;;5096847;28;20439;-86
2022/05/28 12:46:39;;;;;;;65.13;2.00;;;19.60;1.00;;;;;;5097795;28;20382;-87
2022/05/28 12:49:11;;;;;;;69.90;2.60;;;19.40;1.00;;;;;;5095271;28;20422;-86
2022/05/28 12:51:45;;;;;;;69.07;2.60;;;19.40;1.00;;;;;;5097357;28;20422;-86
2022/05/28 12:54:29;;;;;;;66.50;2.17;;;19.00;1.00;;;;;;5100071;28;20891;-86
2022/05/28 12:57:13;;;;;;;71.60;3.83;;;18.90;1.00;;;;;;5098911;28;20393;-86
2022/05/28 12:59:43;;;;;;;72.67;5.80;;;18.90;1.00;;;;;;5100149;28;20457;-86
2022/05/28 13:02:25;;;;;;;66.00;2.60;;;19.00;1.00;;;;;;5096706;28;20432;-86
2022/05/28 13:05:14;;;;;;;68.60;2.73;;;18.80;1.00;;;;;;5098892;28;20480;-87
2022/05/28 13:07:39;;;;;;;67.70;2.37;;;18.50;1.00;;;;;;5097120;28;20411;-87
2022/05/28 13:10:18;;;;;;;65.27;2.10;;;18.30;1.00;;;;;;5094935;28;20508;-86